createdAt,value
2022-07-29T00:03:43.259Z,98771.60
2022-07-29T00:09:11.588Z,98773.00
2022-07-29T00:14:56.364Z,98766.20
2022-07-29T00:20:31.894Z,98767.00
2022-07-29T00:26:08.852Z,98758.40
2022-07-29T00:31:39.479Z,98759.60
2022-07-29T00:37:22.085Z,98762.40
2022-07-29T00:43:02.761Z,98751.40
2022-07-29T00:48:39.802Z,98757.40
2022-07-29T00:54:08.865Z,98754.80
2022-07-29T00:59:45.496Z,98750.20
2022-07-29T01:05:21.354Z,98747.80
2022-07-29T01:10:50.440Z,98733.00
2022-07-29T01:16:51.609Z,98733.20
2022-07-29T01:22:54.296Z,98732.00
2022-07-29T01:29:12.559Z,98731.20
2022-07-29T01:34:54.584Z,98735.00
2022-07-29T01:40:37.369Z,98732.40
2022-07-29T01:46:22.297Z,98730.40
2022-07-29T01:52:06.256Z,98725.80
2022-07-29T01:57:40.753Z,98713.40
2022-07-29T02:03:37.983Z,98703.40
2022-07-29T02:09:11.621Z,98697.00
2022-07-29T02:14:44.262Z,98714.20
2022-07-29T02:20:14.816Z,98710.20
2022-07-29T02:26:10.291Z,98704.00
2022-07-29T02:31:43.380Z,98707.00
2022-07-29T02:37:17.781Z,98704.80
2022-07-29T02:42:50.805Z,98704.20
2022-07-29T02:49:12.214Z,98701.00
2022-07-29T02:55:28.930Z,98694.60
2022-07-29T03:01:04.798Z,98690.80
2022-07-29T03:07:23.247Z,98684.00
2022-07-29T03:13:14.136Z,98674.00
2022-07-29T03:18:54.455Z,98669.20
2022-07-29T03:24:33.613Z,98668.60
2022-07-29T03:29:56.362Z,98668.00
2022-07-29T03:35:22.099Z,98677.80
2022-07-29T03:41:02.419Z,98680.60
2022-07-29T03:47:16.674Z,98670.40
2022-07-29T03:53:01.351Z,98678.40
2022-07-29T03:58:37.629Z,98675.20
2022-07-29T04:04:14.494Z,98679.00
2022-07-29T04:09:42.447Z,98681.80
2022-07-29T04:15:32.026Z,98689.40
2022-07-29T04:21:01.932Z,98696.80
2022-07-29T04:26:42.919Z,98690.00
2022-07-29T04:32:13.245Z,98692.60
2022-07-29T04:37:35.849Z,98689.80
2022-07-29T04:43:21.238Z,98685.60
2022-07-29T04:48:50.926Z,98676.40
2022-07-29T04:54:37.012Z,98675.40
2022-07-29T05:00:13.085Z,98670.60
2022-07-29T05:05:43.308Z,98666.60
2022-07-29T05:11:21.299Z,98666.80
2022-07-29T05:16:50.581Z,98660.80
2022-07-29T05:22:15.073Z,98671.20
2022-07-29T05:27:56.416Z,98665.40
2022-07-29T05:33:35.835Z,98658.20
2022-07-29T05:39:01.287Z,98657.20
2022-07-29T05:44:40.929Z,98649.80
2022-07-29T05:50:09.885Z,98653.60
2022-07-29T05:55:35.394Z,98660.60
2022-07-29T06:01:06.775Z,98660.20
2022-07-29T06:06:35.468Z,98666.60
2022-07-29T06:12:02.215Z,98668.20
2022-07-29T06:17:35.302Z,98660.60
2022-07-29T06:22:59.813Z,98659.80
2022-07-29T06:28:39.144Z,98658.60
2022-07-29T06:34:05.124Z,98657.20
2022-07-29T06:39:42.774Z,98661.40
2022-07-29T06:45:17.293Z,98662.80
2022-07-29T06:50:40.917Z,98667.80
2022-07-29T06:56:09.464Z,98676.40
2022-07-29T07:01:34.561Z,98672.20
2022-07-29T07:06:56.950Z,98666.60
2022-07-29T07:12:22.209Z,98663.40
2022-07-29T07:17:59.485Z,98674.20
2022-07-29T07:23:21.596Z,98668.40
2022-07-29T07:28:43.481Z,98655.80
2022-07-29T07:34:16.493Z,98646.00
2022-07-29T07:39:50.453Z,98646.00
2022-07-29T07:45:16.456Z,98655.00
2022-07-29T07:50:38.950Z,98654.60
2022-07-29T07:56:21.181Z,98656.00
2022-07-29T08:01:47.957Z,98658.40
2022-07-29T08:07:21.283Z,98659.40
2022-07-29T08:12:43.485Z,98665.80
2022-07-29T08:18:08.732Z,98668.20
2022-07-29T08:23:51.498Z,98669.00
2022-07-29T08:29:37.972Z,98665.40
2022-07-29T08:35:02.185Z,98672.60
2022-07-29T08:40:30.766Z,98663.80
2022-07-29T08:45:57.969Z,98670.80
2022-07-29T08:51:24.394Z,98669.60
2022-07-29T08:56:52.640Z,98663.80
2022-07-29T09:02:30.784Z,98662.40
2022-07-29T09:07:54.234Z,98657.00
2022-07-29T09:13:16.542Z,98660.40
2022-07-29T09:18:48.651Z,98659.80
2022-07-29T09:24:14.286Z,98654.00
2022-07-29T09:29:38.188Z,98645.60
2022-07-29T09:35:24.324Z,98641.80
2022-07-29T09:41:09.110Z,98645.00
2022-07-29T09:46:33.971Z,98648.40
2022-07-29T09:52:10.040Z,98647.60
2022-07-29T09:57:34.642Z,98640.00
2022-07-29T10:03:02.695Z,98634.40
2022-07-29T10:08:38.785Z,98634.80
2022-07-29T10:14:06.787Z,98628.60
2022-07-29T10:19:32.193Z,98626.80
2022-07-29T10:24:55.114Z,98623.80
2022-07-29T10:30:22.228Z,98612.20
2022-07-29T10:35:58.925Z,98614.00
2022-07-29T10:42:01.828Z,98620.80
2022-07-29T10:47:35.133Z,98616.80
2022-07-29T10:53:00.647Z,98612.60
2022-07-29T10:58:25.312Z,98610.20
2022-07-29T11:03:53.645Z,98613.60
2022-07-29T11:09:35.223Z,98613.00
2022-07-29T11:15:03.439Z,98610.20
2022-07-29T11:20:39.457Z,98611.20
2022-07-29T11:26:26.466Z,98604.00
2022-07-29T11:31:57.108Z,98607.60
2022-07-29T11:37:28.042Z,98608.60
2022-07-29T11:42:53.589Z,98609.00
2022-07-29T11:48:29.098Z,98607.40
2022-07-29T11:54:04.415Z,98602.60
2022-07-29T11:59:49.244Z,98611.20
2022-07-29T12:05:22.239Z,98616.80
2022-07-29T12:11:01.483Z,98622.60
2022-07-29T12:16:26.091Z,98625.00
2022-07-29T12:22:12.502Z,98630.40
2022-07-29T12:27:46.137Z,98624.20
2022-07-29T12:33:22.369Z,98617.20
2022-07-29T12:38:47.820Z,98618.20
2022-07-29T12:44:10.740Z,98617.40
2022-07-29T12:49:41.489Z,98606.40
2022-07-29T12:55:04.827Z,98598.00
2022-07-29T13:00:26.959Z,98595.20
2022-07-29T13:05:51.686Z,98594.40
2022-07-29T13:11:30.528Z,98588.80
2022-07-29T13:17:10.189Z,98577.40
2022-07-29T13:22:32.582Z,98570.20
2022-07-29T13:27:59.915Z,98560.60
2022-07-29T13:33:31.440Z,98545.20
2022-07-29T13:39:52.822Z,98537.80
2022-07-29T13:45:39.134Z,98532.00
2022-07-29T13:51:02.405Z,98521.00
2022-07-29T13:56:27.567Z,98523.80
2022-07-29T14:01:49.584Z,98507.60
2022-07-29T14:07:16.346Z,98500.80
2022-07-29T14:12:39.379Z,98491.60
2022-07-29T14:18:02.595Z,98486.20
2022-07-29T14:23:24.399Z,98485.80
2022-07-29T14:28:50.409Z,98484.00
2022-07-29T14:34:12.861Z,98482.20
2022-07-29T14:39:42.772Z,98485.80
2022-07-29T14:45:09.382Z,98481.40
2022-07-29T14:50:32.304Z,98486.20
2022-07-29T14:55:54.359Z,98483.00
2022-07-29T15:01:19.016Z,98485.60
2022-07-29T15:06:40.835Z,98481.20
2022-07-29T15:12:08.281Z,98478.80
2022-07-29T15:17:33.559Z,98485.60
2022-07-29T15:23:01.685Z,98487.80
2022-07-29T15:28:24.501Z,98488.80
2022-07-29T15:33:46.516Z,98497.20
2022-07-29T15:39:08.652Z,98498.80
2022-07-29T15:44:30.718Z,98497.20
2022-07-29T15:49:55.456Z,98492.60
2022-07-29T15:55:17.357Z,98493.40
2022-07-29T16:00:39.542Z,98494.20
2022-07-29T16:06:02.219Z,98494.00
2022-07-29T16:11:24.055Z,98499.60
2022-07-29T16:16:46.389Z,98501.00
2022-07-29T16:22:08.869Z,98493.60
2022-07-29T16:27:31.409Z,98490.60
2022-07-29T16:33:00.228Z,98479.00
2022-07-29T16:38:23.053Z,98476.00
2022-07-29T16:43:45.763Z,98477.40
2022-07-29T16:49:07.855Z,98475.80
2022-07-29T16:54:29.869Z,98480.00
2022-07-29T16:59:52.779Z,98511.40
2022-07-29T17:05:16.088Z,98543.40
2022-07-29T17:10:38.109Z,98542.00
2022-07-29T17:16:00.776Z,98544.00
2022-07-29T17:21:24.855Z,98542.40
2022-07-29T17:26:50.356Z,98537.00
2022-07-29T17:32:12.610Z,98542.80
2022-07-29T17:37:37.932Z,98547.00
2022-07-29T17:43:00.289Z,98546.40
2022-07-29T17:48:23.177Z,98542.00
2022-07-29T17:53:47.003Z,98545.40
2022-07-29T17:59:10.366Z,98543.40
2022-07-29T18:04:32.523Z,98529.40
2022-07-29T18:10:00.057Z,98520.40
2022-07-29T18:15:23.252Z,98518.60
2022-07-29T18:20:48.791Z,98527.60
2022-07-29T18:26:11.040Z,98531.00
2022-07-29T18:31:33.760Z,98519.00
2022-07-29T18:36:56.369Z,98506.40
2022-07-29T18:42:18.516Z,98508.00
2022-07-29T18:47:40.546Z,98508.60
2022-07-29T18:53:05.038Z,98514.60
2022-07-29T18:58:33.135Z,98522.60
2022-07-29T19:03:54.893Z,98522.20
2022-07-29T19:09:22.739Z,98524.40
2022-07-29T19:14:44.870Z,98535.00
2022-07-29T19:20:08.489Z,98557.00
2022-07-29T19:25:31.424Z,98568.60
2022-07-29T19:31:00.826Z,98582.00
2022-07-29T19:36:27.852Z,98583.80
2022-07-29T19:41:49.964Z,98598.40
2022-07-29T19:47:19.301Z,98599.00
2022-07-29T19:52:41.607Z,98591.20
2022-07-29T19:58:06.915Z,98579.60
2022-07-29T20:03:33.727Z,98568.00
2022-07-29T20:08:58.768Z,98560.00
2022-07-29T20:14:21.716Z,98548.60
2022-07-29T20:19:43.984Z,98530.00
2022-07-29T20:25:10.107Z,98517.20
2022-07-29T20:30:34.333Z,98518.60
2022-07-29T20:36:08.536Z,98515.00
2022-07-29T20:41:30.370Z,98503.00
2022-07-29T20:46:57.636Z,98491.40
2022-07-29T20:52:20.088Z,98496.20
2022-07-29T20:57:41.746Z,98490.40
2022-07-29T21:03:04.410Z,98479.40
2022-07-29T21:08:29.503Z,98478.20
2022-07-29T21:13:54.324Z,98478.00
2022-07-29T21:19:16.886Z,98463.20
2022-07-29T21:24:42.188Z,98451.20
2022-07-29T21:30:08.547Z,98445.80
2022-07-29T21:36:06.356Z,98442.60
2022-07-29T21:41:14.984Z,98445.80
2022-07-29T21:46:45.273Z,98446.20
2022-07-29T21:52:08.917Z,98448.00
2022-07-29T21:57:32.057Z,98460.60
2022-07-29T22:03:07.953Z,98447.80
2022-07-29T22:08:30.180Z,98448.80
2022-07-29T22:13:52.368Z,98437.60
2022-07-29T22:19:15.500Z,98448.40
2022-07-29T22:25:00.537Z,98444.20
2022-07-29T22:30:30.339Z,98436.80
2022-07-29T22:35:52.565Z,98436.40
2022-07-29T22:41:14.848Z,98439.00
2022-07-29T22:46:38.193Z,98433.00
2022-07-29T22:52:00.523Z,98426.60
2022-07-29T22:57:22.379Z,98420.40
2022-07-29T23:02:44.581Z,98412.20
2022-07-29T23:08:30.357Z,98401.20
2022-07-29T23:14:29.947Z,98401.80
2022-07-29T23:20:02.165Z,98390.20
2022-07-29T23:25:44.328Z,98374.60
2022-07-29T23:31:13.773Z,98361.40
2022-07-29T23:36:38.883Z,98353.00
2022-07-29T23:42:09.970Z,98356.80
2022-07-29T23:47:32.644Z,98355.40
2022-07-29T23:53:13.395Z,98347.00
2022-07-29T23:58:40.300Z,98329.20
